createdAt,value
2023-02-20T00:00:00.640Z,974.5
2023-02-20T00:01:00.625Z,974.5
2023-02-20T00:02:00.574Z,974.7
2023-02-20T00:03:00.597Z,974.7
2023-02-20T00:04:00.584Z,974.7
2023-02-20T00:05:00.584Z,974.7
2023-02-20T00:06:00.600Z,974.9
2023-02-20T00:07:00.593Z,974.9
2023-02-20T00:08:00.585Z,974.9
2023-02-20T00:09:00.593Z,974.9
2023-02-20T00:10:00.722Z,974.9
2023-02-20T00:11:00.592Z,974.9
2023-02-20T00:12:00.575Z,974.9
2023-02-20T00:13:00.606Z,974.9
2023-02-20T00:14:00.747Z,974.9
2023-02-20T00:15:00.872Z,975.1
2023-02-20T00:16:00.808Z,975.4
2023-02-20T00:17:01.550Z,975.4
2023-02-20T00:18:00.648Z,975.1
2023-02-20T00:19:00.765Z,975.1
2023-02-20T00:20:00.907Z,975.4
2023-02-20T00:21:00.784Z,975.4
2023-02-20T00:22:00.635Z,975.1
2023-02-20T00:23:00.586Z,974.9
2023-02-20T00:24:00.695Z,975.1
2023-02-20T00:25:00.713Z,975.4
2023-02-20T00:26:00.598Z,975.1
2023-02-20T00:27:00.597Z,975.1
2023-02-20T00:28:00.604Z,975.1
2023-02-20T00:29:00.611Z,975.1
2023-02-20T00:30:00.722Z,975.1
2023-02-20T00:31:00.670Z,974.9
2023-02-20T00:32:00.682Z,975.1
2023-02-20T00:33:00.618Z,975.1
2023-02-20T00:34:00.601Z,975.1
2023-02-20T00:35:00.804Z,975.1
2023-02-20T00:36:00.644Z,975.1
2023-02-20T00:37:00.622Z,974.9
2023-02-20T00:38:00.627Z,974.9
2023-02-20T00:39:00.632Z,974.9
2023-02-20T00:40:00.706Z,975.1
2023-02-20T00:41:00.656Z,974.9
2023-02-20T00:42:00.622Z,974.9
2023-02-20T00:43:00.637Z,974.9
2023-02-20T00:44:00.636Z,974.9
2023-02-20T00:45:00.811Z,974.9
2023-02-20T00:46:00.676Z,974.9
2023-02-20T00:47:00.628Z,974.9
2023-02-20T00:48:00.641Z,974.7
2023-02-20T00:49:00.712Z,974.9
2023-02-20T00:50:00.800Z,974.7
2023-02-20T00:51:00.648Z,974.7
2023-02-20T00:52:00.636Z,974.7
2023-02-20T00:53:00.617Z,974.7
2023-02-20T00:54:00.644Z,974.7
2023-02-20T00:55:00.727Z,974.7
2023-02-20T00:56:00.649Z,974.9
2023-02-20T00:57:00.625Z,974.7
2023-02-20T00:58:00.642Z,974.9
2023-02-20T00:59:00.662Z,974.9
2023-02-20T01:00:00.810Z,974.9
2023-02-20T01:01:00.650Z,974.9
2023-02-20T01:02:00.638Z,974.9
2023-02-20T01:03:00.675Z,974.7
2023-02-20T01:04:00.629Z,974.7
2023-02-20T01:05:00.653Z,974.9
2023-02-20T01:06:00.630Z,974.9
2023-02-20T01:07:00.639Z,974.9
2023-02-20T01:08:00.651Z,974.7
2023-02-20T01:09:00.651Z,974.5
2023-02-20T01:10:00.697Z,974.5
2023-02-20T01:11:00.648Z,974.7
2023-02-20T01:12:00.668Z,974.7
2023-02-20T01:13:00.627Z,974.5
2023-02-20T01:14:00.637Z,974.9
2023-02-20T01:15:00.651Z,974.5
2023-02-20T01:16:00.726Z,974.7
2023-02-20T01:17:00.635Z,974.7
2023-02-20T01:18:00.623Z,974.5
2023-02-20T01:19:00.650Z,974.5
2023-02-20T01:20:00.670Z,974.5
2023-02-20T01:21:00.658Z,974.7
2023-02-20T01:22:00.636Z,974.7
2023-02-20T01:23:00.632Z,974.9
2023-02-20T01:24:00.661Z,974.5
2023-02-20T01:25:00.642Z,974.5
2023-02-20T01:26:00.646Z,974.5
2023-02-20T01:27:00.633Z,974.5
2023-02-20T01:28:00.643Z,974.5
2023-02-20T01:29:00.678Z,974.7
2023-02-20T01:30:00.683Z,974.7
2023-02-20T01:31:00.661Z,974.7
2023-02-20T01:32:00.758Z,974.7
2023-02-20T01:33:00.645Z,974.9
2023-02-20T01:34:00.672Z,974.9
2023-02-20T01:35:00.662Z,974.7
2023-02-20T01:36:00.645Z,974.5
2023-02-20T01:37:00.652Z,974.7
2023-02-20T01:38:00.669Z,974.9
2023-02-20T01:39:00.684Z,974.9
2023-02-20T01:40:00.693Z,974.9
2023-02-20T01:41:00.683Z,974.9
2023-02-20T01:42:00.653Z,974.9
2023-02-20T01:43:00.687Z,974.7
2023-02-20T01:44:00.659Z,974.9
2023-02-20T01:45:00.680Z,974.5
2023-02-20T01:46:00.665Z,974.5
2023-02-20T01:47:00.684Z,974.7
2023-02-20T01:48:00.670Z,974.5
2023-02-20T01:49:00.678Z,974.7
2023-02-20T01:50:00.750Z,974.7
2023-02-20T01:51:00.672Z,974.5
2023-02-20T01:52:00.663Z,974.5
2023-02-20T01:53:00.667Z,974.7
2023-02-20T01:54:00.665Z,974.5
2023-02-20T01:55:00.745Z,974.7
2023-02-20T01:56:00.678Z,974.9
2023-02-20T01:57:00.669Z,974.7
2023-02-20T01:58:00.677Z,974.9
2023-02-20T01:59:00.697Z,974.7
2023-02-20T02:00:00.757Z,974.7
2023-02-20T02:01:00.762Z,974.5
2023-02-20T02:02:01.616Z,974.7
2023-02-20T02:03:00.679Z,974.7
2023-02-20T02:04:00.693Z,974.5
2023-02-20T02:05:00.701Z,974.5
2023-02-20T02:06:00.705Z,974.3
2023-02-20T02:07:00.681Z,974.5
2023-02-20T02:08:00.680Z,974.5
2023-02-20T02:09:00.681Z,974.5
2023-02-20T02:10:00.705Z,974.5
2023-02-20T02:11:00.730Z,974
2023-02-20T02:12:00.689Z,974
2023-02-20T02:13:00.685Z,974.5
2023-02-20T02:14:00.689Z,974.5
2023-02-20T02:15:00.732Z,974.3
2023-02-20T02:16:00.706Z,974
2023-02-20T02:17:00.697Z,974
2023-02-20T02:18:00.684Z,974.5
2023-02-20T02:19:00.686Z,974.5
2023-02-20T02:20:00.706Z,974.3
2023-02-20T02:21:00.700Z,974.3
2023-02-20T02:22:00.710Z,974
2023-02-20T02:23:00.692Z,974.3
2023-02-20T02:24:00.693Z,974.5
2023-02-20T02:25:00.735Z,974
2023-02-20T02:26:00.703Z,974
2023-02-20T02:27:00.690Z,973.8
2023-02-20T02:28:00.712Z,973.6
2023-02-20T02:29:00.700Z,973.8
2023-02-20T02:30:00.725Z,974
2023-02-20T02:31:00.735Z,973.8
2023-02-20T02:32:00.702Z,973.8
2023-02-20T02:33:00.707Z,973.8
2023-02-20T02:34:00.707Z,973.6
2023-02-20T02:35:00.733Z,973.6
2023-02-20T02:36:00.711Z,973.8
2023-02-20T02:37:00.719Z,973.6
2023-02-20T02:38:00.727Z,973.6
2023-02-20T02:39:00.700Z,973.6
2023-02-20T02:40:00.741Z,973.6
2023-02-20T02:41:00.705Z,973.6
2023-02-20T02:42:00.705Z,973.6
2023-02-20T02:43:00.729Z,973.6
2023-02-20T02:44:00.708Z,973.6
2023-02-20T02:45:00.736Z,973.6
2023-02-20T02:46:00.763Z,973.8
2023-02-20T02:47:00.729Z,973.8
2023-02-20T02:48:00.740Z,973.8
2023-02-20T02:49:00.712Z,974
2023-02-20T02:50:00.738Z,974
2023-02-20T02:51:00.743Z,973.8
2023-02-20T02:52:00.714Z,973.8
2023-02-20T02:53:00.735Z,974
2023-02-20T02:54:00.719Z,974
2023-02-20T02:55:00.786Z,974
2023-02-20T02:56:00.728Z,974
2023-02-20T02:57:00.718Z,974
2023-02-20T02:58:00.738Z,974
2023-02-20T02:59:00.726Z,974
2023-02-20T03:00:00.762Z,974
2023-02-20T03:01:01.522Z,974.5
2023-02-20T03:02:01.505Z,974.5
2023-02-20T03:03:01.515Z,974.5
2023-02-20T03:04:01.521Z,974.5
2023-02-20T03:05:01.528Z,974.5
2023-02-20T03:06:01.502Z,974.9
2023-02-20T03:07:01.503Z,974.9
2023-02-20T03:08:01.527Z,974.7
2023-02-20T03:09:01.522Z,974.7
2023-02-20T03:10:01.558Z,974.9
2023-02-20T03:11:01.847Z,974.9
2023-02-20T03:12:01.508Z,974.9
2023-02-20T03:13:01.534Z,974.9
2023-02-20T03:14:01.512Z,974.9
2023-02-20T03:15:01.576Z,975.1
2023-02-20T03:16:01.522Z,974.9
2023-02-20T03:17:01.512Z,975.1
2023-02-20T03:18:01.531Z,975.1
2023-02-20T03:19:01.519Z,975.4
2023-02-20T03:20:01.573Z,975.6
2023-02-20T03:21:01.528Z,975.8
2023-02-20T03:22:01.522Z,975.8
2023-02-20T03:23:01.542Z,976.2
2023-02-20T03:24:01.537Z,976.2
2023-02-20T03:25:01.545Z,975.8
2023-02-20T03:26:01.532Z,976.2
2023-02-20T03:27:01.543Z,976
2023-02-20T03:28:01.557Z,975.8
2023-02-20T03:29:01.531Z,976
2023-02-20T03:30:01.581Z,976.2
2023-02-20T03:31:01.626Z,976.2
2023-02-20T03:32:01.602Z,975.8
2023-02-20T03:33:01.556Z,975.8
2023-02-20T03:34:01.549Z,975.6
2023-02-20T03:35:01.563Z,975.8
2023-02-20T03:36:01.542Z,975.8
2023-02-20T03:37:01.543Z,975.8
2023-02-20T03:38:01.566Z,975.8
2023-02-20T03:39:01.543Z,975.8
2023-02-20T03:40:01.596Z,976
2023-02-20T03:41:01.544Z,976
2023-02-20T03:42:01.555Z,976.2
2023-02-20T03:43:01.582Z,976.2
2023-02-20T03:44:01.550Z,976.4
2023-02-20T03:45:01.579Z,976.4
2023-02-20T03:46:01.619Z,976.7
2023-02-20T03:47:01.551Z,976.7
2023-02-20T03:48:01.566Z,976.7
2023-02-20T03:49:01.588Z,977.1
2023-02-20T03:50:01.593Z,977.1
2023-02-20T03:51:01.556Z,976.9
2023-02-20T03:52:01.570Z,977.1
2023-02-20T03:53:01.574Z,977.1
2023-02-20T03:54:01.568Z,976.7
2023-02-20T03:55:01.587Z,976.7
2023-02-20T03:56:01.561Z,976.9
2023-02-20T03:57:01.564Z,976.7
2023-02-20T03:58:01.588Z,976.7
2023-02-20T03:59:01.585Z,977.1
2023-02-20T04:00:01.700Z,977.1
2023-02-20T04:01:01.566Z,977.1
2023-02-20T04:02:01.574Z,977.5
2023-02-20T04:03:01.568Z,977.5
2023-02-20T04:04:01.572Z,977.7
2023-02-20T04:05:01.598Z,978
2023-02-20T04:06:01.603Z,977.5
2023-02-20T04:07:01.600Z,978
2023-02-20T04:08:01.573Z,978.2
2023-02-20T04:09:01.586Z,978.4
2023-02-20T04:10:01.619Z,978.4
2023-02-20T04:11:01.580Z,978.4
2023-02-20T04:12:01.602Z,978.4
2023-02-20T04:13:01.598Z,978.4
2023-02-20T04:14:01.581Z,978.4
2023-02-20T04:15:01.597Z,978.4
2023-02-20T04:16:01.584Z,978.4
2023-02-20T04:17:01.584Z,978.4
2023-02-20T04:18:01.581Z,978.4
2023-02-20T04:19:01.603Z,978.4
2023-02-20T04:20:01.665Z,978.8
2023-02-20T04:21:01.604Z,978.4
2023-02-20T04:22:01.587Z,978.4
2023-02-20T04:23:01.614Z,978.4
2023-02-20T04:24:01.584Z,978.8
2023-02-20T04:25:01.625Z,978.6
2023-02-20T04:26:01.600Z,978.6
2023-02-20T04:27:01.590Z,979
2023-02-20T04:28:01.590Z,979.3
2023-02-20T04:29:01.611Z,979.3
2023-02-20T04:30:01.634Z,979
2023-02-20T04:31:01.624Z,979
2023-02-20T04:32:01.630Z,978.8
2023-02-20T04:33:01.618Z,978.8
2023-02-20T04:34:01.598Z,979
2023-02-20T04:35:01.617Z,978.8
2023-02-20T04:36:01.626Z,979
2023-02-20T04:37:01.595Z,979.3
2023-02-20T04:38:01.618Z,979.3
2023-02-20T04:39:01.612Z,979.5
2023-02-20T04:40:01.641Z,979.3
2023-02-20T04:41:01.598Z,979.7
2023-02-20T04:42:01.627Z,979.5
2023-02-20T04:43:01.612Z,979.7
2023-02-20T04:44:01.607Z,979.7
2023-02-20T04:45:01.723Z,979.7
2023-02-20T04:46:01.673Z,979.7
2023-02-20T04:47:01.613Z,979.7
2023-02-20T04:48:01.675Z,979.9
2023-02-20T04:49:01.616Z,980.1
2023-02-20T04:50:01.677Z,980.1
2023-02-20T04:51:03.051Z,980.6
2023-02-20T04:52:01.691Z,980.6
2023-02-20T04:53:01.631Z,980.8
2023-02-20T04:54:01.624Z,980.8
2023-02-20T04:55:01.648Z,981
2023-02-20T04:56:01.677Z,981.4
2023-02-20T04:57:01.625Z,981.4
2023-02-20T04:58:01.702Z,981.9
2023-02-20T04:59:01.698Z,981.4
2023-02-20T05:00:01.766Z,981.9
2023-02-20T05:01:01.707Z,981.9
2023-02-20T05:02:01.640Z,981.9
2023-02-20T05:03:01.677Z,981.9
2023-02-20T05:04:00.575Z,981.9
2023-02-20T05:05:00.573Z,981.9
2023-02-20T05:06:00.603Z,981.9
2023-02-20T05:07:00.563Z,981.9
2023-02-20T05:08:00.566Z,981.9
2023-02-20T05:09:00.574Z,982.1
2023-02-20T05:10:00.595Z,981.9
2023-02-20T05:11:00.567Z,981.9
2023-02-20T05:12:00.581Z,981.9
2023-02-20T05:13:00.562Z,981.9
2023-02-20T05:14:00.582Z,981.9
2023-02-20T05:15:00.593Z,981.7
2023-02-20T05:16:00.653Z,981.7
2023-02-20T05:17:00.582Z,981.9
2023-02-20T05:18:00.574Z,981.9
2023-02-20T05:19:00.606Z,981.9
2023-02-20T05:20:00.646Z,981.9
2023-02-20T05:21:00.600Z,981.9
2023-02-20T05:22:00.588Z,982.1
2023-02-20T05:23:00.617Z,982.3
2023-02-20T05:24:00.594Z,982.1
2023-02-20T05:25:00.606Z,982.1
2023-02-20T05:26:00.596Z,981.9
2023-02-20T05:27:00.580Z,981.9
2023-02-20T05:28:00.591Z,982.1
2023-02-20T05:29:00.621Z,982.1
2023-02-20T05:30:00.643Z,982.3
2023-02-20T05:31:00.627Z,982.3
2023-02-20T05:32:00.690Z,982.3
2023-02-20T05:33:00.616Z,982.3
2023-02-20T05:34:00.589Z,982.3
2023-02-20T05:35:00.625Z,982.3
2023-02-20T05:36:00.621Z,982.3
2023-02-20T05:37:00.579Z,982.3
2023-02-20T05:38:00.608Z,982.7
2023-02-20T05:39:00.599Z,982.7
2023-02-20T05:40:00.619Z,982.7
2023-02-20T05:41:00.583Z,983
2023-02-20T05:42:00.603Z,983.2
2023-02-20T05:43:00.605Z,983.2
2023-02-20T05:44:00.600Z,983.2
2023-02-20T05:45:00.634Z,983.4
2023-02-20T05:46:00.660Z,983.4
2023-02-20T05:47:00.619Z,983.6
2023-02-20T05:48:00.592Z,983.8
2023-02-20T05:49:00.598Z,984
2023-02-20T05:50:00.629Z,984
2023-02-20T05:51:00.621Z,984
2023-02-20T05:52:00.605Z,984
2023-02-20T05:53:00.620Z,984
2023-02-20T05:54:00.608Z,984
2023-02-20T05:55:00.622Z,983.8
2023-02-20T05:56:00.611Z,983.6
2023-02-20T05:57:02.197Z,983.6
2023-02-20T05:58:00.629Z,983.4
2023-02-20T05:59:00.645Z,983.4
2023-02-20T06:00:00.633Z,983.2
2023-02-20T06:01:00.621Z,983.4
2023-02-20T06:02:01.381Z,983.6
2023-02-20T06:03:00.631Z,983.6
2023-02-20T06:04:00.684Z,983.6
2023-02-20T06:05:00.686Z,983.6
2023-02-20T06:06:00.631Z,983.6
2023-02-20T06:07:00.640Z,983.6
2023-02-20T06:08:00.635Z,983.8
2023-02-20T06:09:00.635Z,983.6
2023-02-20T06:10:00.641Z,983.6
2023-02-20T06:11:00.659Z,983.6
2023-02-20T06:12:00.649Z,983.8
2023-02-20T06:13:00.654Z,983.6
2023-02-20T06:14:00.720Z,983.6
2023-02-20T06:15:00.652Z,983.6
2023-02-20T06:16:00.677Z,984
2023-02-20T06:17:00.627Z,984
2023-02-20T06:18:00.646Z,984
2023-02-20T06:19:00.635Z,984
2023-02-20T06:20:00.685Z,983.6
2023-02-20T06:21:00.711Z,983.6
2023-02-20T06:22:00.653Z,984
2023-02-20T06:23:00.729Z,984.3
2023-02-20T06:24:00.710Z,984.3
2023-02-20T06:25:00.638Z,984.3
2023-02-20T06:26:00.642Z,984
2023-02-20T06:27:00.661Z,984
2023-02-20T06:28:00.683Z,984
2023-02-20T06:29:00.690Z,984.3
2023-02-20T06:30:00.646Z,984.5
2023-02-20T06:31:02.021Z,984.5
2023-02-20T06:32:00.758Z,984.5
2023-02-20T06:33:00.670Z,984.7
2023-02-20T06:34:00.651Z,984.9
2023-02-20T06:35:00.639Z,984.7
2023-02-20T06:36:00.675Z,984.9
2023-02-20T06:37:00.679Z,984.9
2023-02-20T06:38:00.676Z,985.1
2023-02-20T06:39:00.665Z,984.9
2023-02-20T06:40:00.672Z,984.9
2023-02-20T06:41:00.662Z,985.1
2023-02-20T06:42:00.685Z,984.9
2023-02-20T06:43:00.679Z,984.9
2023-02-20T06:44:00.669Z,984.9
2023-02-20T06:45:00.706Z,984.9
2023-02-20T06:46:00.657Z,984.9
2023-02-20T06:47:00.683Z,984.9
2023-02-20T06:48:00.683Z,984.9
2023-02-20T06:49:00.665Z,984.9
2023-02-20T06:50:00.672Z,985.1
2023-02-20T06:51:00.682Z,984.9
2023-02-20T06:52:03.098Z,984.9
2023-02-20T06:53:00.698Z,984.9
2023-02-20T06:54:00.671Z,984.9
2023-02-20T06:55:00.675Z,985.1
2023-02-20T06:56:00.684Z,984.9
2023-02-20T06:57:00.682Z,984.9
2023-02-20T06:58:00.682Z,985.1
2023-02-20T06:59:00.695Z,984.9
2023-02-20T07:00:00.702Z,984.9
2023-02-20T07:01:00.733Z,985.1
2023-02-20T07:02:00.724Z,985.4
2023-02-20T07:03:00.699Z,985.4
2023-02-20T07:04:02.720Z,985.1
2023-02-20T07:05:00.707Z,985.1
2023-02-20T07:06:00.695Z,985.1
2023-02-20T07:07:00.686Z,984.9
2023-02-20T07:08:00.724Z,984.9
2023-02-20T07:09:00.686Z,985.1
2023-02-20T07:10:00.706Z,985.1
2023-02-20T07:11:00.686Z,984.9
2023-02-20T07:12:00.687Z,985.1
2023-02-20T07:13:00.696Z,985.1
2023-02-20T07:14:00.694Z,985.4
2023-02-20T07:15:00.737Z,985.1
2023-02-20T07:16:00.718Z,985.4
2023-02-20T07:17:00.690Z,985.4
2023-02-20T07:18:00.719Z,985.4
2023-02-20T07:19:00.706Z,985.4
2023-02-20T07:20:00.710Z,985.4
2023-02-20T07:21:00.692Z,985.4
2023-02-20T07:22:00.693Z,985.4
2023-02-20T07:23:00.696Z,985.1
2023-02-20T07:24:00.710Z,985.1
2023-02-20T07:25:00.717Z,985.4
2023-02-20T07:26:00.705Z,985.1
2023-02-20T07:27:00.696Z,985.1
2023-02-20T07:28:00.692Z,985.1
2023-02-20T07:29:00.716Z,985.1
2023-02-20T07:30:00.712Z,985.4
2023-02-20T07:31:00.710Z,985.1
2023-02-20T07:32:00.971Z,985.1
2023-02-20T07:33:00.726Z,985.1
2023-02-20T07:34:00.721Z,985.4
2023-02-20T07:35:06.064Z,985.8
2023-02-20T07:36:00.705Z,985.8
2023-02-20T07:37:00.713Z,985.4
2023-02-20T07:38:00.719Z,985.4
2023-02-20T07:39:00.723Z,985.1
2023-02-20T07:40:00.724Z,984.9
2023-02-20T07:41:00.709Z,985.1
2023-02-20T07:42:00.706Z,984.7
2023-02-20T07:43:00.707Z,984
2023-02-20T07:44:00.734Z,983.6
2023-02-20T07:45:00.735Z,984
2023-02-20T07:46:00.749Z,984
2023-02-20T07:47:00.714Z,984
2023-02-20T07:48:00.743Z,984.5
2023-02-20T07:49:00.743Z,984.3
2023-02-20T07:50:00.713Z,984.3
2023-02-20T07:51:00.724Z,984.5
2023-02-20T07:52:00.728Z,984.5
2023-02-20T07:53:00.721Z,983.6
2023-02-20T07:54:00.746Z,982.7
2023-02-20T07:55:00.750Z,983.6
2023-02-20T07:56:00.729Z,983.6
2023-02-20T07:57:00.728Z,983.8
2023-02-20T07:58:00.735Z,983.6
2023-02-20T07:59:01.126Z,983.8
2023-02-20T08:00:00.786Z,983.8
2023-02-20T08:01:00.904Z,983.4
2023-02-20T08:02:00.863Z,983.4
2023-02-20T08:03:00.863Z,983.6
2023-02-20T08:04:00.864Z,983.6
2023-02-20T08:05:00.977Z,983.2
2023-02-20T08:06:00.935Z,983.2
2023-02-20T08:07:00.867Z,983.4
2023-02-20T08:08:00.986Z,983.2
2023-02-20T08:09:00.880Z,982.5
2023-02-20T08:10:00.918Z,982.3
2023-02-20T08:11:08.711Z,981.9
2023-02-20T08:12:00.942Z,982.1
2023-02-20T08:13:00.934Z,981.4
2023-02-20T08:14:01.868Z,981
2023-02-20T08:15:01.022Z,981.7
2023-02-20T08:16:00.934Z,981.9
2023-02-20T08:17:01.061Z,980.8
2023-02-20T08:18:00.940Z,981.4
2023-02-20T08:19:00.892Z,981.4
2023-02-20T08:20:00.928Z,981.4
2023-02-20T08:21:00.831Z,981
2023-02-20T08:22:00.896Z,981
2023-02-20T08:23:00.778Z,980.8
2023-02-20T08:24:00.820Z,981
2023-02-20T08:25:01.094Z,980.8
2023-02-20T08:26:01.099Z,980.6
2023-02-20T08:27:00.920Z,980.8
2023-02-20T08:28:00.756Z,980.6
2023-02-20T08:29:00.849Z,980.1
2023-02-20T08:30:00.765Z,979.9
2023-02-20T08:31:00.774Z,979.5
2023-02-20T08:32:00.864Z,978.8
2023-02-20T08:33:00.776Z,979.3
2023-02-20T08:34:00.806Z,978.8
2023-02-20T08:35:00.782Z,978.8
2023-02-20T08:36:00.798Z,978.4
2023-02-20T08:37:00.786Z,977.5
2023-02-20T08:38:02.739Z,978
2023-02-20T08:39:00.758Z,978
2023-02-20T08:40:00.779Z,978.2
2023-02-20T08:41:00.780Z,978.6
2023-02-20T08:42:01.072Z,978
2023-02-20T08:43:00.773Z,978
2023-02-20T08:44:00.771Z,977.1
2023-02-20T08:45:00.770Z,977.7
2023-02-20T08:46:00.828Z,977.1
2023-02-20T08:47:00.798Z,977.5
2023-02-20T08:48:00.790Z,977.7
2023-02-20T08:49:00.784Z,977.5
2023-02-20T08:50:00.790Z,977.3
2023-02-20T08:51:00.800Z,976.9
2023-02-20T08:52:00.776Z,977.1
2023-02-20T08:53:00.781Z,976.7
2023-02-20T08:54:00.789Z,976.9
2023-02-20T08:55:00.783Z,976.4
2023-02-20T08:56:00.803Z,976.7
2023-02-20T08:57:00.784Z,976.2
2023-02-20T08:58:00.784Z,975.8
2023-02-20T08:59:00.786Z,975.6
2023-02-20T09:00:00.799Z,975.8
2023-02-20T09:01:00.810Z,975.8
2023-02-20T09:02:00.789Z,976.2
2023-02-20T09:03:00.853Z,976
2023-02-20T09:04:00.792Z,975.8
2023-02-20T09:05:00.790Z,975.4
2023-02-20T09:06:00.817Z,975.8
2023-02-20T09:07:00.790Z,975.8
2023-02-20T09:08:00.818Z,975.4
2023-02-20T09:09:00.833Z,975.4
2023-02-20T09:10:00.795Z,975.8
2023-02-20T09:11:00.807Z,975.4
2023-02-20T09:12:00.806Z,975.4
2023-02-20T09:13:00.821Z,975.4
2023-02-20T09:14:00.794Z,975.1
2023-02-20T09:15:00.821Z,974.9
2023-02-20T09:16:00.813Z,974.5
2023-02-20T09:17:00.809Z,974.7
2023-02-20T09:18:00.828Z,974.9
2023-02-20T09:19:00.801Z,974.5
2023-02-20T09:20:00.813Z,974.7
2023-02-20T09:21:00.824Z,974.7
2023-02-20T09:22:00.817Z,974
2023-02-20T09:23:00.825Z,973.8
2023-02-20T09:24:00.840Z,973.6
2023-02-20T09:25:00.812Z,973.6
2023-02-20T09:26:00.829Z,973.6
2023-02-20T09:27:00.817Z,973.6
2023-02-20T09:28:00.832Z,973.2
2023-02-20T09:29:00.821Z,973.2
2023-02-20T09:30:00.817Z,973.2
2023-02-20T09:31:00.841Z,973.2
2023-02-20T09:32:00.932Z,972.7
2023-02-20T09:33:00.839Z,972.5
2023-02-20T09:34:00.829Z,972.7
2023-02-20T09:35:00.828Z,973.2
2023-02-20T09:36:00.851Z,972.5
2023-02-20T09:37:00.834Z,972.7
2023-02-20T09:38:00.843Z,972.7
2023-02-20T09:39:00.853Z,972.7
2023-02-20T09:40:00.836Z,972.3
2023-02-20T09:41:00.847Z,972.3
2023-02-20T09:42:00.828Z,972.3
2023-02-20T09:43:00.829Z,972.7
2023-02-20T09:44:00.862Z,973
2023-02-20T09:45:00.833Z,972.7
2023-02-20T09:46:00.879Z,972.7
2023-02-20T09:47:00.857Z,972.5
2023-02-20T09:48:00.836Z,972.3
2023-02-20T09:49:00.855Z,971.9
2023-02-20T09:50:00.833Z,972.3
2023-02-20T09:51:00.860Z,972.3
2023-02-20T09:52:01.796Z,972.3
2023-02-20T09:53:00.855Z,971.9
2023-02-20T09:54:00.837Z,971.9
2023-02-20T09:55:00.848Z,971.9
2023-02-20T09:56:00.874Z,971.9
2023-02-20T09:57:00.857Z,972.1
2023-02-20T09:58:00.855Z,971
2023-02-20T09:59:00.860Z,970.8
2023-02-20T10:00:03.700Z,971
2023-02-20T10:01:00.874Z,971
2023-02-20T10:02:00.957Z,971
2023-02-20T10:03:01.016Z,971
2023-02-20T10:04:00.857Z,971.2
2023-02-20T10:05:01.989Z,971
2023-02-20T10:06:00.868Z,971
2023-02-20T10:07:00.873Z,971
2023-02-20T10:08:00.856Z,971.2
2023-02-20T10:09:00.859Z,970.6
2023-02-20T10:10:00.866Z,970.6
2023-02-20T10:11:00.873Z,970.1
2023-02-20T10:12:00.876Z,970.1
2023-02-20T10:13:00.881Z,969.7
2023-02-20T10:14:00.864Z,970.6
2023-02-20T10:15:00.869Z,970.6
2023-02-20T10:16:00.931Z,970.1
2023-02-20T10:17:00.884Z,969.7
2023-02-20T10:18:00.867Z,970.1
2023-02-20T10:19:00.892Z,970.1
2023-02-20T10:20:01.216Z,970.4
2023-02-20T10:21:00.889Z,970.1
2023-02-20T10:22:00.886Z,970.6
2023-02-20T10:23:00.880Z,970.4
2023-02-20T10:24:05.811Z,970.1
2023-02-20T10:25:01.224Z,970.4
2023-02-20T10:26:00.904Z,970.8
2023-02-20T10:27:00.896Z,970.4
2023-02-20T10:28:00.904Z,970.1
2023-02-20T10:29:00.912Z,970.1
2023-02-20T10:30:00.881Z,970.1
2023-02-20T10:31:00.981Z,970.1
2023-02-20T10:32:00.995Z,970.4
2023-02-20T10:33:00.898Z,970.1
2023-02-20T10:34:00.887Z,969.7
2023-02-20T10:35:00.888Z,969.7
2023-02-20T10:36:00.910Z,969.7
2023-02-20T10:37:00.888Z,969.7
2023-02-20T10:38:00.910Z,969.7
2023-02-20T10:39:00.935Z,969.7
2023-02-20T10:40:00.898Z,969.7
2023-02-20T10:41:00.916Z,969.7
2023-02-20T10:42:00.892Z,969.5
2023-02-20T10:43:00.915Z,969.3
2023-02-20T10:44:01.055Z,969.3
2023-02-20T10:45:01.357Z,969.3
2023-02-20T10:46:01.571Z,969.3
2023-02-20T10:47:00.960Z,969.3
2023-02-20T10:48:00.920Z,969.3
2023-02-20T10:49:00.899Z,969.3
2023-02-20T10:50:01.357Z,969.7
2023-02-20T10:51:00.925Z,969.3
2023-02-20T10:52:00.906Z,969.5
2023-02-20T10:53:00.912Z,969.7
2023-02-20T10:54:00.921Z,969.7
2023-02-20T10:55:00.910Z,969.3
2023-02-20T10:56:00.923Z,968.8
2023-02-20T10:57:00.931Z,968.8
2023-02-20T10:58:00.932Z,968.8
2023-02-20T10:59:00.909Z,969
2023-02-20T11:00:00.922Z,968.8
2023-02-20T11:01:01.107Z,968.4
2023-02-20T11:02:01.070Z,968.8
2023-02-20T11:03:00.914Z,969.3
2023-02-20T11:04:01.017Z,968.8
2023-02-20T11:05:00.896Z,968.8
2023-02-20T11:06:00.866Z,968.6
2023-02-20T11:07:02.310Z,969
2023-02-20T11:08:00.805Z,968.2
2023-02-20T11:09:00.762Z,968.4
2023-02-20T11:10:00.770Z,968.8
2023-02-20T11:11:00.712Z,968
2023-02-20T11:12:00.688Z,968.4
2023-02-20T11:13:00.658Z,968
2023-02-20T11:14:00.611Z,968
2023-02-20T11:15:00.608Z,968
2023-02-20T11:16:00.661Z,968
2023-02-20T11:17:00.521Z,968
2023-02-20T11:18:00.510Z,967.5
2023-02-20T11:19:00.494Z,967.5
2023-02-20T11:20:00.513Z,968
2023-02-20T11:21:00.518Z,968
2023-02-20T11:22:00.516Z,967.3
2023-02-20T11:23:00.516Z,966.9
2023-02-20T11:24:00.509Z,966.9
2023-02-20T11:25:00.536Z,966.7
2023-02-20T11:26:00.541Z,967.1
2023-02-20T11:27:00.527Z,967.1
2023-02-20T11:28:00.515Z,967.1
2023-02-20T11:29:00.554Z,966.7
2023-02-20T11:30:00.532Z,967.5
2023-02-20T11:31:00.571Z,967.3
2023-02-20T11:32:00.535Z,967.1
2023-02-20T11:33:00.524Z,966.7
2023-02-20T11:34:00.530Z,966.9
2023-02-20T11:35:00.555Z,967.1
2023-02-20T11:36:00.520Z,966.7
2023-02-20T11:37:00.523Z,966.7
2023-02-20T11:38:00.525Z,966.4
2023-02-20T11:39:00.536Z,965.8
2023-02-20T11:40:00.554Z,965.4
2023-02-20T11:41:00.558Z,965.8
2023-02-20T11:42:00.538Z,966
2023-02-20T11:43:00.531Z,965.8
2023-02-20T11:44:01.675Z,966.2
2023-02-20T11:45:00.552Z,965.8
2023-02-20T11:46:00.573Z,966
2023-02-20T11:47:00.561Z,965.8
2023-02-20T11:48:00.543Z,965.8
2023-02-20T11:49:00.538Z,965.8
2023-02-20T11:50:13.456Z,965.1
2023-02-20T11:51:00.556Z,964.5
2023-02-20T11:52:00.542Z,964.9
2023-02-20T11:53:00.559Z,964.9
2023-02-20T11:54:00.544Z,964.5
2023-02-20T11:55:00.573Z,964.5
2023-02-20T11:56:00.561Z,964.9
2023-02-20T11:57:00.553Z,964.7
2023-02-20T11:58:00.547Z,965.4
2023-02-20T11:59:00.558Z,965.8
2023-02-20T12:00:00.547Z,965.1
2023-02-20T12:01:00.573Z,964.9
2023-02-20T12:02:01.340Z,964.5
2023-02-20T12:03:00.583Z,965.1
2023-02-20T12:04:00.668Z,964.5
2023-02-20T12:05:00.569Z,964.5
2023-02-20T12:06:00.612Z,964.9
2023-02-20T12:07:00.565Z,965.4
2023-02-20T12:08:00.577Z,964.5
2023-02-20T12:09:02.050Z,964.9
2023-02-20T12:10:00.571Z,963.8
2023-02-20T12:11:00.570Z,964
2023-02-20T12:12:00.583Z,964
2023-02-20T12:13:00.567Z,964
2023-02-20T12:14:00.572Z,963.4
2023-02-20T12:15:00.560Z,963.2
2023-02-20T12:16:00.627Z,963.4
2023-02-20T12:17:00.553Z,963.6
2023-02-20T12:18:00.580Z,964
2023-02-20T12:19:00.556Z,963.6
2023-02-20T12:20:00.566Z,964
2023-02-20T12:21:00.596Z,964
2023-02-20T12:22:00.573Z,963.4
2023-02-20T12:23:00.560Z,963.2
2023-02-20T12:24:00.573Z,963.6
2023-02-20T12:25:01.096Z,963.2
2023-02-20T12:26:00.582Z,963.2
2023-02-20T12:27:00.575Z,963
2023-02-20T12:28:00.580Z,963.4
2023-02-20T12:29:00.567Z,963
2023-02-20T12:30:00.606Z,962.3
2023-02-20T12:31:01.107Z,962.3
2023-02-20T12:32:00.735Z,961.9
2023-02-20T12:33:00.592Z,962.3
2023-02-20T12:34:00.601Z,963.2
2023-02-20T12:35:00.971Z,963.2
2023-02-20T12:36:00.987Z,962.7
2023-02-20T12:37:00.607Z,962.3
2023-02-20T12:38:00.589Z,962.5
2023-02-20T12:39:00.598Z,961.9
2023-02-20T12:40:00.610Z,962.3
2023-02-20T12:41:00.615Z,961.2
2023-02-20T12:42:00.605Z,961.4
2023-02-20T12:43:00.606Z,961.9
2023-02-20T12:44:12.594Z,961.9
2023-02-20T12:45:00.613Z,961.4
2023-02-20T12:46:00.585Z,961.9
2023-02-20T12:47:00.625Z,961.4
2023-02-20T12:48:00.595Z,961.9
2023-02-20T12:49:00.596Z,961
2023-02-20T12:50:00.629Z,961.9
2023-02-20T12:51:00.597Z,962.3
2023-02-20T12:52:00.624Z,962.3
2023-02-20T12:53:00.622Z,961.7
2023-02-20T12:54:00.607Z,961.7
2023-02-20T12:55:00.605Z,962.3
2023-02-20T12:56:00.620Z,961.7
2023-02-20T12:57:00.618Z,961.4
2023-02-20T12:58:00.600Z,961